Bootsie B, — WDF9484 — position and weather

sailwx.info

Track history (hours):
 
Tides and Currents Weather Stations Pressure Air Temp Water Temp Dewpoint Dewpoint Depression Visibility Wind Speed Wind Dir Waves Ship Positions

Bootsie B,

Owner: Marquette Transp[ortation Co. LLC, Paducah, KY. More information available from US FCC via Universal Licensing System and Coast Guard Vessel Documentation Center.

Last reported at 2014-Oct-10 03:28 UTC. Time now 2014-Oct-24 16:15 UTC.
Position N 30°01' W 090°50'.
Warning: this ship's position is 14 days out of date.

Length 57 m; draft 2 m.

Type: Towing. MMSI: 367505630.

Date/timePositionNaut miles runAvg speedWind from/ knotsBaromVisibWave heightAir tempDewpointWater temp
2014-Oct-10 03:28N 30°01' W 090°50'2 2.2
2014-Oct-10 02:26N 29°59' W 090°49'0 0.0
2014-Oct-10 01:06N 29°59' W 090°49'7 2.8
2014-Oct-09 22:33N 30°02' W 090°42'4 0.7
2014-Oct-09 16:32N 30°02' W 090°37'2 2.4
2014-Oct-09 15:33N 30°03' W 090°34'0 0.1
2014-Oct-09 14:33N 30°03' W 090°34'4 2.2
2014-Oct-09 12:33N 30°03' W 090°29'0 0.0
2014-Oct-09 11:33N 30°03' W 090°29'0 0.3
2014-Oct-09 10:33N 30°03' W 090°29'6 5.6
2014-Oct-09 09:33N 29°59' W 090°24'4 2.6
2014-Oct-09 08:10N 29°56' W 090°21'0 0.0
2014-Oct-09 06:20N 29°56' W 090°21'11 0.7
2014-Oct-08 15:32N 30°03' W 090°30'3 3.4
2014-Oct-08 14:33N 30°03' W 090°34'0 0.0
2014-Oct-08 13:33N 30°03' W 090°34'0 0.0
2014-Oct-08 12:33N 30°03' W 090°34'0 0.0
2014-Oct-08 11:33N 30°03' W 090°34'0 0.0
2014-Oct-08 10:33N 30°03' W 090°34'0 0.0
2014-Oct-08 09:33N 30°03' W 090°34'0 0.0
2014-Oct-08 08:33N 30°03' W 090°34'0 0.0
2014-Oct-08 07:33N 30°03' W 090°34'0 0.0
2014-Oct-08 06:33N 30°03' W 090°34'0 0.0
2014-Oct-08 05:33N 30°03' W 090°34'0 0.0
2014-Oct-08 04:33N 30°03' W 090°34'3 2.6
2014-Oct-08 03:33N 30°02' W 090°37'5 4.9
2014-Oct-08 02:33N 30°01' W 090°43'  
Track history (hours):
 
Tides and Currents Weather Stations Pressure Air Temp Water Temp Dewpoint Dewpoint Depression Visibility Wind Speed Wind Dir Waves Ship Positions

Bootsie B,

Owner: Marquette Transp[ortation Co. LLC, Paducah, KY. More information available from US FCC via Universal Licensing System and Coast Guard Vessel Documentation Center.

Last reported at 2014-Oct-10 03:28 UTC. Time now 2014-Oct-24 16:15 UTC.
Position N 30°01' W 090°50'.
Warning: this ship's position is 14 days out of date.

Length 57 m; draft 2 m.

Type: Towing. MMSI: 367505630.

Date/timePositionNaut miles runAvg speedWind from/ knotsBaromVisibWave heightAir tempDewpointWater temp
2014-Oct-10 03:28N 30°01' W 090°50'2 2.2
2014-Oct-10 02:26N 29°59' W 090°49'0 0.0
2014-Oct-10 01:06N 29°59' W 090°49'7 2.8
2014-Oct-09 22:33N 30°02' W 090°42'4 0.7
2014-Oct-09 16:32N 30°02' W 090°37'2 2.4
2014-Oct-09 15:33N 30°03' W 090°34'0 0.1
2014-Oct-09 14:33N 30°03' W 090°34'4 2.2
2014-Oct-09 12:33N 30°03' W 090°29'0 0.0
2014-Oct-09 11:33N 30°03' W 090°29'0 0.3
2014-Oct-09 10:33N 30°03' W 090°29'6 5.6
2014-Oct-09 09:33N 29°59' W 090°24'4 2.6
2014-Oct-09 08:10N 29°56' W 090°21'0 0.0
2014-Oct-09 06:20N 29°56' W 090°21'11 0.7
2014-Oct-08 15:32N 30°03' W 090°30'3 3.4
2014-Oct-08 14:33N 30°03' W 090°34'0 0.0
2014-Oct-08 13:33N 30°03' W 090°34'0 0.0
2014-Oct-08 12:33N 30°03' W 090°34'0 0.0
2014-Oct-08 11:33N 30°03' W 090°34'0 0.0
2014-Oct-08 10:33N 30°03' W 090°34'0 0.0
2014-Oct-08 09:33N 30°03' W 090°34'0 0.0
2014-Oct-08 08:33N 30°03' W 090°34'0 0.0
2014-Oct-08 07:33N 30°03' W 090°34'0 0.0
2014-Oct-08 06:33N 30°03' W 090°34'0 0.0
2014-Oct-08 05:33N 30°03' W 090°34'0 0.0
2014-Oct-08 04:33N 30°03' W 090°34'3 2.6
2014-Oct-08 03:33N 30°02' W 090°37'5 4.9
2014-Oct-08 02:33N 30°01' W 090°43'  

Dump ship's entire track history